Time;durP1;ratioP1;P1;durP2;ratioP2;P2;SDS_P1;SDS_P2;PMS_P1;PMS_P2;Temp;Humidity;BMP_temperature;BMP_pressure;BME280_temperature;BME280_humidity;BME280_pressure;Samples;Min_cycle;Max_cycle;Signal;HPM_P1;HPM_P2
2023/12/19 00:00:07;;;;;;;13.70;10.43;;;8.50;77.50;;;;;;5068823;28;21085;-64
2023/12/19 00:02:34;;;;;;;12.40;10.07;;;8.40;77.50;;;;;;5055772;28;20496;-64
2023/12/19 00:05:00;;;;;;;14.67;10.50;;;8.40;78.50;;;;;;5061943;28;20470;-64
2023/12/19 00:07:29;;;;;;;14.23;9.70;;;8.40;77.60;;;;;;5066520;28;21108;-62
2023/12/19 00:09:56;;;;;;;14.27;10.30;;;8.30;77.40;;;;;;5051791;28;20819;-63
2023/12/19 00:12:24;;;;;;;11.13;9.37;;;8.30;77.70;;;;;;5057568;28;20472;-61
2023/12/19 00:14:51;;;;;;;13.27;9.23;;;8.30;77.90;;;;;;5049270;28;20443;-64
2023/12/19 00:17:17;;;;;;;14.83;9.97;;;8.30;77.90;;;;;;5054009;28;20443;-64
2023/12/19 00:19:44;;;;;;;14.10;9.77;;;8.30;78.20;;;;;;5068972;28;20454;-64
2023/12/19 00:22:11;;;;;;;13.50;10.37;;;8.30;78.50;;;;;;5062967;28;20439;-64
2023/12/19 00:24:39;;;;;;;15.40;10.73;;;8.30;78.80;;;;;;5053631;28;20445;-64
2023/12/19 00:27:05;;;;;;;12.37;9.70;;;8.20;78.50;;;;;;5064126;28;20459;-63
2023/12/19 00:29:34;;;;;;;12.87;10.53;;;8.30;78.70;;;;;;5054743;28;20488;-62
2023/12/19 00:32:00;;;;;;;15.53;10.57;;;8.30;78.60;;;;;;5053246;28;20448;-64
2023/12/19 00:34:27;;;;;;;14.10;11.00;;;8.20;78.70;;;;;;5065593;28;20814;-63
2023/12/19 00:36:54;;;;;;;14.87;11.00;;;8.20;78.60;;;;;;5073100;28;20454;-63
2023/12/19 00:39:21;;;;;;;15.20;11.07;;;8.30;78.60;;;;;;5063583;28;20792;-63
2023/12/19 00:41:48;;;;;;;13.47;10.77;;;8.30;78.70;;;;;;5071340;28;20443;-64
2023/12/19 00:44:14;;;;;;;13.57;10.87;;;8.30;78.80;;;;;;5072040;28;20993;-62
2023/12/19 00:46:43;;;;;;;12.87;10.40;;;8.30;78.60;;;;;;5058885;28;20823;-63
2023/12/19 00:49:10;;;;;;;15.97;11.43;;;8.40;78.60;;;;;;5069864;28;20475;-63
2023/12/19 00:51:37;;;;;;;15.57;11.00;;;8.30;78.50;;;;;;5072620;28;20443;-63
2023/12/19 00:54:05;;;;;;;13.53;10.60;;;8.40;78.30;;;;;;5071151;28;20451;-64
2023/12/19 00:56:32;;;;;;;14.20;10.93;;;8.40;78.20;;;;;;5064691;28;20601;-61
2023/12/19 00:58:59;;;;;;;15.90;10.40;;;8.30;78.00;;;;;;5067902;28;20443;-64
2023/12/19 01:01:27;;;;;;;15.83;10.93;;;8.20;78.30;;;;;;5072455;28;20439;-64
2023/12/19 01:03:55;;;;;;;14.33;10.97;;;8.20;78.40;;;;;;5072337;28;20835;-64
2023/12/19 01:06:22;;;;;;;15.03;10.93;;;8.10;78.30;;;;;;5065439;28;20496;-63
2023/12/19 01:08:49;;;;;;;15.43;10.90;;;8.00;78.70;;;;;;5068589;28;20489;-64
2023/12/19 01:11:16;;;;;;;15.13;11.23;;;7.90;79.00;;;;;;5071002;28;20442;-63
2023/12/19 01:13:42;;;;;;;18.27;12.30;;;7.80;79.40;;;;;;5070554;28;20919;-63
2023/12/19 01:16:09;;;;;;;15.70;11.40;;;7.70;79.80;;;;;;5072077;28;20463;-62
2023/12/19 01:18:36;;;;;;;16.40;11.30;;;7.70;80.10;;;;;;5067669;28;20866;-63
2023/12/19 01:21:05;;;;;;;15.77;11.23;;;7.60;80.10;;;;;;5065497;28;21097;-62
2023/12/19 01:23:31;;;;;;;15.43;11.03;;;7.60;80.50;;;;;;5054501;28;20471;-63
2023/12/19 01:25:58;;;;;;;16.30;11.17;;;7.50;81.00;;;;;;5052638;28;20447;-64
2023/12/19 01:28:25;;;;;;;13.40;11.00;;;7.40;82.30;;;;;;5051978;28;20498;-63
2023/12/19 01:30:52;;;;;;;16.03;11.63;;;7.30;82.30;;;;;;5051966;28;20444;-63
2023/12/19 01:33:18;;;;;;;16.00;11.10;;;7.40;81.50;;;;;;5060229;28;20447;-63
2023/12/19 01:35:45;;;;;;;14.00;10.77;;;7.50;81.40;;;;;;5063287;28;20529;-64
2023/12/19 01:38:14;;;;;;;13.07;10.10;;;7.40;81.10;;;;;;5061703;28;20233;-63
2023/12/19 01:40:41;;;;;;;15.33;10.90;;;7.50;81.10;;;;;;5071972;28;20465;-64
2023/12/19 01:43:18;;;;;;;16.67;11.80;;;7.40;81.00;;;;;;5065392;28;20711;-64
2023/12/19 01:45:45;;;;;;;14.77;11.43;;;7.40;81.40;;;;;;5058981;28;20464;-64
2023/12/19 01:48:12;;;;;;;14.07;11.33;;;7.40;81.30;;;;;;5044814;28;20490;-62
2023/12/19 01:50:39;;;;;;;15.53;11.93;;;7.40;81.30;;;;;;5051733;28;20437;-63
2023/12/19 01:53:06;;;;;;;14.50;11.50;;;7.50;81.10;;;;;;5059101;28;20453;-61
2023/12/19 01:55:35;;;;;;;13.13;11.30;;;7.50;81.10;;;;;;5071545;28;20506;-62
2023/12/19 01:58:02;;;;;;;15.23;12.17;;;7.50;81.10;;;;;;5071515;28;20507;-63
2023/12/19 02:00:29;;;;;;;15.50;11.83;;;7.50;81.10;;;;;;5069787;28;20452;-63
2023/12/19 02:02:56;;;;;;;16.57;12.00;;;7.50;81.80;;;;;;5053125;28;20454;-62
2023/12/19 02:05:23;;;;;;;15.30;11.60;;;7.60;80.90;;;;;;5051240;28;20448;-63
2023/12/19 02:07:50;;;;;;;13.67;10.43;;;7.50;80.90;;;;;;5054629;28;20446;-63
2023/12/19 02:10:17;;;;;;;15.80;11.57;;;7.60;81.00;;;;;;5051629;28;20455;-63
2023/12/19 02:12:45;;;;;;;15.73;11.77;;;7.60;80.50;;;;;;5060309;28;20463;-62
2023/12/19 02:15:14;;;;;;;14.63;11.50;;;7.60;80.20;;;;;;5068261;28;20440;-63
2023/12/19 02:17:41;;;;;;;14.53;12.43;;;7.60;80.40;;;;;;5070914;28;20446;-62
2023/12/19 02:20:08;;;;;;;16.33;12.07;;;7.60;80.40;;;;;;5068894;28;20458;-63
2023/12/19 02:22:35;;;;;;;15.40;11.60;;;7.50;80.20;;;;;;5047932;28;20448;-63
2023/12/19 02:25:04;;;;;;;15.33;11.20;;;7.50;80.40;;;;;;5066505;28;20443;-63
2023/12/19 02:27:33;;;;;;;15.10;10.73;;;7.50;80.40;;;;;;5051389;28;20444;-63
2023/12/19 02:29:59;;;;;;;14.87;10.90;;;7.40;80.20;;;;;;5052043;28;20811;-63
2023/12/19 02:32:26;;;;;;;14.57;11.03;;;7.40;80.30;;;;;;5052281;28;20444;-63
2023/12/19 02:34:53;;;;;;;15.53;11.40;;;7.40;80.20;;;;;;5055623;28;20436;-64
2023/12/19 02:37:20;;;;;;;14.57;10.80;;;7.40;80.30;;;;;;5051175;28;20448;-62
2023/12/19 02:39:46;;;;;;;13.33;10.83;;;7.30;80.30;;;;;;5050986;28;20441;-63
2023/12/19 02:42:15;;;;;;;12.97;10.70;;;7.20;80.40;;;;;;5051008;28;20831;-64
2023/12/19 02:44:41;;;;;;;16.10;11.17;;;7.20;80.70;;;;;;5063182;28;20453;-64
2023/12/19 02:47:08;;;;;;;17.73;11.23;;;7.20;80.70;;;;;;5050509;28;20452;-64
2023/12/19 02:49:35;;;;;;;16.60;11.20;;;7.10;80.70;;;;;;5050632;28;20503;-62
2023/12/19 02:52:02;;;;;;;13.67;11.30;;;7.10;80.70;;;;;;5065960;28;20478;-63
2023/12/19 02:54:29;;;;;;;16.33;10.90;;;7.10;80.70;;;;;;5062750;28;21123;-63
2023/12/19 02:56:55;;;;;;;14.57;10.57;;;7.10;80.60;;;;;;5069757;28;20473;-63
2023/12/19 02:59:24;;;;;;;14.43;10.57;;;7.20;80.50;;;;;;5030661;28;20437;-63
2023/12/19 03:01:50;;;;;;;13.53;10.37;;;7.20;80.40;;;;;;5049680;28;20447;-63
2023/12/19 03:04:17;;;;;;;15.53;10.57;;;7.20;80.30;;;;;;5065616;28;20463;-64
2023/12/19 03:06:44;;;;;;;13.97;10.13;;;7.10;80.40;;;;;;5050545;28;20463;-63
2023/12/19 03:09:11;;;;;;;14.93;10.47;;;7.10;80.40;;;;;;5063181;28;20826;-64
2023/12/19 03:11:39;;;;;;;14.53;10.57;;;7.00;80.40;;;;;;5050795;28;20459;-64
2023/12/19 03:14:06;;;;;;;12.73;10.53;;;6.90;80.50;;;;;;5051865;28;20456;-63
2023/12/19 03:16:34;;;;;;;13.80;10.40;;;6.90;80.50;;;;;;5051255;28;20546;-64
2023/12/19 03:19:01;;;;;;;14.73;10.13;;;6.90;80.70;;;;;;5050105;28;20436;-64
2023/12/19 03:21:28;;;;;;;12.47;9.83;;;6.90;80.80;;;;;;5062116;28;20471;-63
2023/12/19 03:23:54;;;;;;;14.50;9.97;;;6.90;80.50;;;;;;5065990;28;20473;-63
2023/12/19 03:26:21;;;;;;;15.53;10.57;;;7.00;80.50;;;;;;5067657;28;20443;-63
2023/12/19 03:28:48;;;;;;;11.87;9.47;;;6.90;80.40;;;;;;5069804;28;21047;-64
2023/12/19 03:31:15;;;;;;;12.13;9.37;;;6.90;80.40;;;;;;5051045;28;20453;-64
2023/12/19 03:33:43;;;;;;;13.13;10.13;;;6.90;80.20;;;;;;5051051;28;20452;-62
2023/12/19 03:36:10;;;;;;;13.37;9.47;;;7.00;80.10;;;;;;5058696;28;20442;-63
2023/12/19 03:38:37;;;;;;;12.23;9.47;;;7.00;79.70;;;;;;5069901;28;20483;-64
2023/12/19 03:41:04;;;;;;;11.93;10.07;;;7.00;79.50;;;;;;5060002;28;20452;-64
2023/12/19 03:43:31;;;;;;;13.13;9.70;;;7.00;79.40;;;;;;5049861;28;20444;-63
2023/12/19 03:46:02;;;;;;;11.83;9.67;;;7.00;79.40;;;;;;5052685;28;20469;-63
2023/12/19 03:48:29;;;;;;;12.50;9.23;;;7.00;79.50;;;;;;5069825;28;20453;-63
2023/12/19 03:50:57;;;;;;;13.93;9.37;;;7.00;79.70;;;;;;5061968;28;20448;-61
2023/12/19 03:53:24;;;;;;;11.93;9.23;;;7.00;79.50;;;;;;5058965;28;20448;-64
2023/12/19 03:55:53;;;;;;;12.93;9.10;;;6.90;79.40;;;;;;5068972;28;20455;-63
2023/12/19 03:58:20;;;;;;;11.90;10.20;;;6.90;79.40;;;;;;5062638;28;20439;-64
2023/12/19 04:00:48;;;;;;;12.47;8.93;;;6.80;79.70;;;;;;5049937;28;20444;-64
2023/12/19 04:03:15;;;;;;;11.23;8.93;;;6.80;79.80;;;;;;5053376;28;20452;-63
2023/12/19 04:05:42;;;;;;;12.20;8.97;;;6.80;79.70;;;;;;5059120;28;20444;-63
2023/12/19 04:08:10;;;;;;;10.97;8.53;;;6.80;79.70;;;;;;5061738;28;20440;-63
2023/12/19 04:10:37;;;;;;;10.37;8.57;;;6.70;79.80;;;;;;5050690;28;20491;-63
2023/12/19 04:13:04;;;;;;;12.43;8.77;;;6.70;79.90;;;;;;5060453;28;20439;-63
2023/12/19 04:15:31;;;;;;;12.80;9.20;;;6.70;79.90;;;;;;5049269;28;20954;-63
2023/12/19 04:17:57;;;;;;;11.60;8.60;;;6.70;79.70;;;;;;5056358;28;20439;-63
2023/12/19 04:20:24;;;;;;;10.10;8.17;;;6.70;79.50;;;;;;5063304;28;20460;-64
2023/12/19 04:22:51;;;;;;;11.60;8.73;;;6.70;80.40;;;;;;5058997;28;20451;-64
2023/12/19 04:25:19;;;;;;;10.70;8.43;;;6.60;79.50;;;;;;5064095;28;20451;-62
2023/12/19 04:27:46;;;;;;;10.97;8.97;;;6.60;80.40;;;;;;5052650;28;20451;-63
2023/12/19 04:30:13;;;;;;;10.87;8.50;;;6.50;79.60;;;;;;5049570;28;20480;-63
2023/12/19 04:32:40;;;;;;;12.57;9.00;;;6.60;79.80;;;;;;5049130;28;20968;-63
2023/12/19 04:35:08;;;;;;;10.40;8.20;;;6.50;79.80;;;;;;5058005;28;20486;-63
2023/12/19 04:37:35;;;;;;;10.43;8.20;;;6.50;79.80;;;;;;5069233;28;20465;-62
2023/12/19 04:40:03;;;;;;;10.33;7.93;;;6.50;80.10;;;;;;5052292;28;20447;-64
2023/12/19 04:42:31;;;;;;;10.50;8.00;;;6.40;80.00;;;;;;5052630;28;20444;-62
2023/12/19 04:44:58;;;;;;;11.13;8.60;;;6.40;80.00;;;;;;5048864;28;20963;-63
2023/12/19 04:47:24;;;;;;;11.27;8.50;;;6.50;80.10;;;;;;5049237;28;20460;-64
2023/12/19 04:49:52;;;;;;;11.73;8.70;;;6.50;80.10;;;;;;5061670;28;21104;-63
2023/12/19 04:52:19;;;;;;;9.80;8.07;;;6.50;80.10;;;;;;5069078;28;20450;-62
2023/12/19 04:54:46;;;;;;;10.13;7.57;;;6.40;80.00;;;;;;5051181;28;20456;-63
2023/12/19 04:57:13;;;;;;;12.43;8.50;;;6.40;80.00;;;;;;5049376;28;20475;-62
2023/12/19 04:59:41;;;;;;;10.57;8.13;;;6.50;80.10;;;;;;5051720;28;20538;-63
2023/12/19 05:02:08;;;;;;;10.03;8.50;;;6.40;80.00;;;;;;5049586;28;20440;-63
2023/12/19 05:04:35;;;;;;;11.48;8.68;;;6.30;80.20;;;;;;5049159;28;20444;-62
2023/12/19 05:07:01;;;;;;;11.30;8.17;;;6.30;80.50;;;;;;5050512;28;20700;-64
2023/12/19 05:09:28;;;;;;;11.73;8.87;;;6.20;80.60;;;;;;5059622;28;20480;-63
2023/12/19 05:11:55;;;;;;;13.00;8.67;;;6.20;80.60;;;;;;5078136;28;20536;-62
2023/12/19 05:14:22;;;;;;;11.20;8.50;;;6.30;80.80;;;;;;5078293;28;20513;-64
2023/12/19 05:16:50;;;;;;;11.80;8.10;;;6.30;80.70;;;;;;5076521;28;20514;-63
2023/12/19 05:19:17;;;;;;;11.43;8.13;;;6.30;80.70;;;;;;5077047;28;20441;-63
2023/12/19 05:21:43;;;;;;;10.20;8.00;;;6.30;80.70;;;;;;5082678;28;20522;-63
2023/12/19 05:24:10;;;;;;;11.03;8.47;;;6.30;80.60;;;;;;5053915;28;20499;-64
2023/12/19 05:26:37;;;;;;;9.37;7.63;;;6.30;81.10;;;;;;5052365;28;20921;-62
2023/12/19 05:29:04;;;;;;;10.53;7.90;;;6.30;80.40;;;;;;5053570;28;20460;-63
2023/12/19 05:31:31;;;;;;;8.80;7.70;;;6.30;80.20;;;;;;5052629;28;20441;-63
2023/12/19 05:33:59;;;;;;;9.40;7.67;;;6.30;80.10;;;;;;5052033;28;20463;-63
2023/12/19 05:36:26;;;;;;;9.00;7.47;;;6.30;80.10;;;;;;5052284;28;20441;-63
2023/12/19 05:38:52;;;;;;;13.23;8.37;;;6.30;80.20;;;;;;5063501;28;20451;-64
2023/12/19 05:41:19;;;;;;;12.20;8.57;;;6.30;80.50;;;;;;5068118;28;20920;-64
2023/12/19 05:43:46;;;;;;;12.10;8.13;;;6.20;80.50;;;;;;5071605;28;20453;-63
2023/12/19 05:46:13;;;;;;;9.73;8.03;;;6.30;80.60;;;;;;5071549;28;20544;-62
2023/12/19 05:48:41;;;;;;;10.20;8.17;;;6.20;80.60;;;;;;5055959;28;20505;-64
2023/12/19 05:51:09;;;;;;;11.80;8.90;;;6.20;80.80;;;;;;5070550;28;20983;-63
2023/12/19 05:53:38;;;;;;;10.32;8.20;;;6.20;81.00;;;;;;5068511;28;20444;-64
2023/12/19 05:56:05;;;;;;;12.87;9.03;;;6.10;81.10;;;;;;5061602;28;20205;-64
2023/12/19 05:58:32;;;;;;;10.17;8.30;;;6.10;81.40;;;;;;5056793;28;20454;-64
2023/12/19 06:00:59;;;;;;;9.30;7.23;;;6.10;81.30;;;;;;5057411;28;20436;-64
2023/12/19 06:03:26;;;;;;;10.30;7.60;;;6.20;81.10;;;;;;5071292;28;20452;-64
2023/12/19 06:05:53;;;;;;;9.90;7.93;;;6.20;81.00;;;;;;5010290;28;20448;-64
2023/12/19 06:08:21;;;;;;;9.67;6.97;;;6.20;80.90;;;;;;5055858;28;20444;-64
2023/12/19 06:10:48;;;;;;;11.27;8.27;;;6.20;81.00;;;;;;5055446;28;20480;-64
2023/12/19 06:13:15;;;;;;;8.40;6.90;;;6.20;81.00;;;;;;5052819;28;20538;-63
2023/12/19 06:15:42;;;;;;;9.57;7.53;;;6.20;80.80;;;;;;5051315;28;20909;-63
2023/12/19 06:18:08;;;;;;;9.93;7.80;;;6.20;80.80;;;;;;5054166;28;20456;-63
2023/12/19 06:20:35;;;;;;;8.90;7.47;;;6.20;80.80;;;;;;5049632;28;20464;-64
2023/12/19 06:23:02;;;;;;;9.43;7.80;;;6.20;80.80;;;;;;5065305;28;20469;-64
2023/12/19 06:25:33;;;;;;;9.33;8.23;;;6.20;81.00;;;;;;5051173;28;20547;-62
2023/12/19 06:28:00;;;;;;;10.37;7.83;;;6.20;81.10;;;;;;5059534;28;20445;-64
2023/12/19 06:30:27;;;;;;;10.13;7.23;;;6.20;81.10;;;;;;5066051;28;20479;-64
2023/12/19 06:32:53;;;;;;;9.67;7.50;;;6.20;81.00;;;;;;5055011;28;20454;-64
2023/12/19 06:35:20;;;;;;;10.47;8.67;;;6.30;81.10;;;;;;5051936;28;20474;-63
2023/12/19 06:37:47;;;;;;;14.37;9.93;;;6.10;81.40;;;;;;5063815;28;20444;-63
2023/12/19 06:40:14;;;;;;;16.30;12.63;;;6.00;81.80;;;;;;5052556;28;20531;-64
2023/12/19 06:42:42;;;;;;;12.63;9.23;;;6.00;82.10;;;;;;5053047;28;20471;-64
2023/12/19 06:45:12;;;;;;;11.93;9.47;;;5.90;82.10;;;;;;5051821;28;20468;-64
2023/12/19 06:47:38;;;;;;;11.30;8.43;;;5.90;82.30;;;;;;5070123;28;20447;-64
2023/12/19 06:50:06;;;;;;;10.07;7.37;;;5.90;82.30;;;;;;5059397;28;20519;-62
2023/12/19 06:52:33;;;;;;;9.03;7.47;;;5.90;82.30;;;;;;5054936;28;20786;-62
2023/12/19 06:55:00;;;;;;;10.13;7.37;;;5.90;82.20;;;;;;5064543;28;20464;-64
2023/12/19 06:57:27;;;;;;;9.60;8.13;;;5.90;82.20;;;;;;5052297;28;20468;-64
2023/12/19 06:59:55;;;;;;;11.10;8.60;;;5.90;82.20;;;;;;5053184;28;20982;-67
2023/12/19 07:02:22;;;;;;;11.03;8.53;;;6.00;82.10;;;;;;5015223;28;20466;-68
2023/12/19 07:04:48;;;;;;;10.77;8.80;;;6.00;81.90;;;;;;5050780;28;20464;-69
2023/12/19 07:07:15;;;;;;;10.50;8.30;;;6.00;81.80;;;;;;5051432;28;20464;-67
2023/12/19 07:09:42;;;;;;;12.10;8.40;;;6.00;81.80;;;;;;5059761;28;20485;-67
2023/12/19 07:12:10;;;;;;;11.27;8.17;;;6.00;82.00;;;;;;5069023;28;20543;-68
2023/12/19 07:14:38;;;;;;;9.60;7.57;;;5.90;81.90;;;;;;5055993;28;20791;-66
2023/12/19 07:17:06;;;;;;;10.63;7.57;;;5.90;82.10;;;;;;5050349;28;20450;-68
2023/12/19 07:19:33;;;;;;;10.67;7.90;;;5.90;82.10;;;;;;5054992;28;20539;-68
2023/12/19 07:22:00;;;;;;;10.80;8.00;;;5.90;81.90;;;;;;5055181;28;20942;-65
2023/12/19 07:24:29;;;;;;;9.83;7.30;;;5.90;81.90;;;;;;5057211;28;20493;-66
2023/12/19 07:26:57;;;;;;;11.63;8.03;;;6.00;82.60;;;;;;5066540;28;20459;-66
2023/12/19 07:29:24;;;;;;;11.40;7.83;;;5.90;81.50;;;;;;5052200;28;20464;-67
2023/12/19 07:31:52;;;;;;;10.53;8.30;;;6.00;81.70;;;;;;5052655;28;20535;-65
2023/12/19 07:34:20;;;;;;;10.47;8.07;;;6.00;81.50;;;;;;5068193;28;20478;-66
2023/12/19 07:36:47;;;;;;;9.97;7.03;;;6.00;81.40;;;;;;5069173;28;20450;-67
2023/12/19 07:39:14;;;;;;;11.10;8.20;;;6.00;81.30;;;;;;5068207;28;20522;-65
2023/12/19 07:41:40;;;;;;;10.27;8.10;;;6.00;81.10;;;;;;5069882;28;20462;-65
2023/12/19 07:44:09;;;;;;;12.27;8.00;;;6.10;81.10;;;;;;5069736;28;20450;-67
2023/12/19 07:46:39;;;;;;;10.37;8.50;;;6.10;80.80;;;;;;5069177;28;20463;-65
2023/12/19 07:49:06;;;;;;;11.53;8.50;;;6.10;80.80;;;;;;5069648;28;20451;-65
2023/12/19 07:51:34;;;;;;;10.43;8.57;;;6.10;80.70;;;;;;5069595;28;20841;-66
2023/12/19 07:54:01;;;;;;;10.73;7.83;;;6.10;80.70;;;;;;5069744;28;20443;-67
2023/12/19 07:56:28;;;;;;;10.13;7.50;;;6.10;80.80;;;;;;5069525;28;20456;-66
2023/12/19 07:58:54;;;;;;;12.43;8.37;;;6.10;80.80;;;;;;5069526;28;20531;-66
2023/12/19 08:01:22;;;;;;;11.43;8.23;;;6.10;80.70;;;;;;5067147;28;20439;-67
2023/12/19 08:03:49;;;;;;;10.63;7.90;;;6.10;80.80;;;;;;5069451;28;20478;-66
2023/12/19 08:06:16;;;;;;;10.70;8.17;;;6.10;81.00;;;;;;5068934;28;20470;-66
2023/12/19 08:08:49;;;;;;;11.20;7.80;;;6.20;80.90;;;;;;5069572;28;20482;-66
2023/12/19 08:11:16;;;;;;;10.47;7.90;;;6.20;81.00;;;;;;5069429;28;20479;-66
2023/12/19 08:13:43;;;;;;;11.90;8.17;;;6.20;81.00;;;;;;5069263;28;20486;-65
2023/12/19 08:16:11;;;;;;;10.87;8.20;;;6.20;80.80;;;;;;5069688;28;20784;-64
2023/12/19 08:18:37;;;;;;;10.07;8.10;;;6.30;80.70;;;;;;5069852;28;20497;-65
2023/12/19 08:21:05;;;;;;;10.93;7.97;;;6.20;80.50;;;;;;5068753;28;20463;-67
2023/12/19 08:23:31;;;;;;;10.57;8.17;;;6.20;81.40;;;;;;5051846;28;20832;-66
2023/12/19 08:26:00;;;;;;;12.47;7.97;;;6.20;80.60;;;;;;5049360;28;20440;-67
2023/12/19 08:28:26;;;;;;;10.73;7.50;;;6.30;80.50;;;;;;5061113;28;20508;-67
2023/12/19 08:30:53;;;;;;;10.87;8.47;;;6.30;80.60;;;;;;5064998;28;20533;-66
2023/12/19 08:33:20;;;;;;;11.77;8.17;;;6.40;80.20;;;;;;5067650;28;20455;-66
2023/12/19 08:35:47;;;;;;;10.30;8.00;;;6.50;80.10;;;;;;5053093;28;20472;-67
2023/12/19 08:38:14;;;;;;;9.37;7.73;;;6.50;79.70;;;;;;5049236;28;20483;-66
2023/12/19 08:40:41;;;;;;;10.93;7.87;;;6.70;79.70;;;;;;5048372;28;20440;-67
2023/12/19 08:43:10;;;;;;;9.67;8.27;;;6.60;79.20;;;;;;5048446;28;20479;-67
2023/12/19 08:45:38;;;;;;;9.03;7.43;;;6.60;79.60;;;;;;5051745;28;20967;-67
2023/12/19 08:48:06;;;;;;;11.27;8.73;;;6.70;79.60;;;;;;5052084;28;20462;-67
2023/12/19 08:50:32;;;;;;;10.70;7.87;;;6.80;79.20;;;;;;5053008;28;20580;-67
2023/12/19 08:52:59;;;;;;;11.17;7.93;;;7.00;78.50;;;;;;5052757;28;20447;-65
2023/12/19 08:55:26;;;;;;;10.77;7.73;;;7.00;78.20;;;;;;5072573;28;20462;-67
2023/12/19 08:57:53;;;;;;;10.17;7.37;;;7.00;78.20;;;;;;5071152;28;20454;-67
2023/12/19 09:00:22;;;;;;;12.07;9.20;;;7.10;77.50;;;;;;5052884;28;20519;-65
2023/12/19 09:02:49;;;;;;;10.00;7.93;;;7.10;77.60;;;;;;5052781;28;20900;-67
2023/12/19 09:05:17;;;;;;;9.77;7.40;;;7.10;77.40;;;;;;5052707;28;20954;-66
2023/12/19 09:07:46;;;;;;;8.90;7.53;;;7.00;77.60;;;;;;5052790;28;20464;-66
2023/12/19 09:10:13;;;;;;;10.93;7.80;;;6.90;77.90;;;;;;5052610;28;20444;-67
2023/12/19 09:12:41;;;;;;;11.00;8.90;;;6.90;77.90;;;;;;5052435;28;20452;-67
2023/12/19 09:15:10;;;;;;;9.73;7.30;;;7.00;78.00;;;;;;5052661;28;20500;-67
2023/12/19 09:17:38;;;;;;;8.73;7.63;;;6.90;78.30;;;;;;5052461;28;20540;-65
2023/12/19 09:20:07;;;;;;;9.57;7.13;;;6.90;77.70;;;;;;5052511;28;20932;-64
2023/12/19 09:22:35;;;;;;;9.50;7.63;;;7.10;77.70;;;;;;5052324;28;20912;-63
2023/12/19 09:25:02;;;;;;;9.30;7.80;;;7.20;77.50;;;;;;5052419;28;20448;-65
2023/12/19 09:27:29;;;;;;;8.67;7.07;;;7.20;77.10;;;;;;5052648;28;20446;-64
2023/12/19 09:29:56;;;;;;;9.43;7.37;;;7.30;77.10;;;;;;5052816;28;20873;-64
2023/12/19 09:32:23;;;;;;;9.20;7.53;;;7.40;77.20;;;;;;5052019;28;20491;-64
2023/12/19 09:34:51;;;;;;;9.70;7.90;;;7.50;76.60;;;;;;5052493;28;20542;-64
2023/12/19 09:37:21;;;;;;;9.53;7.63;;;7.60;76.40;;;;;;5052591;28;20907;-65
2023/12/19 09:39:48;;;;;;;9.23;7.43;;;7.70;76.30;;;;;;5052318;28;20468;-63
2023/12/19 09:42:19;;;;;;;9.33;7.17;;;7.80;76.00;;;;;;5053442;28;20462;-64
2023/12/19 09:44:47;;;;;;;10.73;8.40;;;8.00;75.70;;;;;;5052033;28;20908;-65
2023/12/19 09:47:21;;;;;;;10.23;7.53;;;8.10;74.70;;;;;;5051988;28;20502;-65
2023/12/19 09:49:54;;;;;;;9.07;7.33;;;8.20;74.40;;;;;;5051911;28;20432;-64
2023/12/19 09:52:24;;;;;;;9.40;7.10;;;8.30;74.40;;;;;;5052837;28;20905;-65
2023/12/19 09:54:52;;;;;;;8.83;7.37;;;8.40;73.90;;;;;;5052726;28;20452;-65
2023/12/19 09:57:19;;;;;;;7.77;6.70;;;8.50;73.80;;;;;;5052944;28;20446;-63
2023/12/19 09:59:48;;;;;;;10.77;7.47;;;8.60;73.40;;;;;;5052911;28;20449;-65
2023/12/19 10:02:17;;;;;;;10.00;7.40;;;8.80;73.20;;;;;;5053869;28;20825;-64
2023/12/19 10:04:44;;;;;;;10.13;7.10;;;9.00;72.90;;;;;;5052327;28;20466;-65
2023/12/19 10:07:13;;;;;;;9.50;6.90;;;9.10;72.40;;;;;;5052758;28;20444;-65
2023/12/19 10:09:53;;;;;;;8.90;7.00;;;9.10;72.20;;;;;;5052697;28;20547;-64
2023/12/19 10:12:20;;;;;;;8.30;6.87;;;9.10;71.60;;;;;;5052476;28;20499;-64
2023/12/19 10:14:48;;;;;;;9.00;6.93;;;9.20;71.90;;;;;;5060486;28;20451;-65
2023/12/19 10:17:17;;;;;;;8.40;7.03;;;9.30;71.20;;;;;;5055621;28;21131;-65
2023/12/19 10:19:44;;;;;;;9.73;7.53;;;9.40;70.90;;;;;;5055858;28;20486;-65
2023/12/19 10:22:16;;;;;;;7.97;6.37;;;9.30;71.10;;;;;;5065861;28;20439;-65
2023/12/19 10:24:43;;;;;;;8.57;6.87;;;9.50;71.30;;;;;;5051340;28;20789;-65
2023/12/19 10:27:11;;;;;;;7.80;5.77;;;9.50;70.40;;;;;;5053285;28;20959;-65
2023/12/19 10:29:38;;;;;;;8.60;6.43;;;9.40;70.30;;;;;;5050775;28;20441;-64
2023/12/19 10:32:16;;;;;;;8.77;5.83;;;9.20;71.60;;;;;;5054678;28;20567;-64
2023/12/19 10:34:44;;;;;;;7.33;5.80;;;9.20;71.40;;;;;;5064807;28;20454;-64
2023/12/19 10:37:13;;;;;;;7.53;5.53;;;9.10;71.60;;;;;;5071445;28;20463;-63
2023/12/19 10:39:42;;;;;;;6.83;5.73;;;9.20;72.20;;;;;;5069662;28;20447;-63
2023/12/19 10:42:10;;;;;;;6.37;5.30;;;9.20;71.70;;;;;;5031037;28;20790;-63
2023/12/19 10:44:39;;;;;;;5.83;4.67;;;9.20;71.70;;;;;;5030718;28;20540;-63
2023/12/19 10:47:07;;;;;;;6.27;5.00;;;9.30;71.90;;;;;;5031094;28;20464;-63
2023/12/19 10:49:34;;;;;;;5.43;4.63;;;9.40;72.30;;;;;;5012326;28;20448;-63
2023/12/19 10:52:06;;;;;;;6.07;4.57;;;9.60;71.70;;;;;;5031250;28;20484;-62
2023/12/19 10:54:37;;;;;;;7.00;5.70;;;9.70;71.00;;;;;;5063692;28;20509;-64
2023/12/19 10:57:16;;;;;;;5.10;4.40;;;10.00;71.10;;;;;;5064501;28;20520;-62
2023/12/19 10:59:54;;;;;;;5.53;3.90;;;10.30;69.00;;;;;;5057511;28;20497;-63
2023/12/19 11:02:33;;;;;;;3.93;3.53;;;10.10;68.30;;;;;;5068991;28;20439;-63
2023/12/19 11:05:10;;;;;;;5.17;3.90;;;9.90;70.60;;;;;;5044926;28;20443;-64
2023/12/19 11:07:38;;;;;;;3.73;3.33;;;9.80;70.60;;;;;;5050536;28;20432;-64
2023/12/19 11:10:10;;;;;;;4.33;3.90;;;9.50;71.00;;;;;;5070500;28;20451;-62
2023/12/19 11:12:38;;;;;;;4.93;4.00;;;9.10;72.60;;;;;;5062359;28;20468;-63
2023/12/19 11:15:06;;;;;;;3.83;3.50;;;8.80;73.60;;;;;;5049558;28;20470;-64
2023/12/19 11:17:40;;;;;;;3.50;3.20;;;8.90;74.10;;;;;;5049948;28;20448;-63
2023/12/19 11:20:15;;;;;;;5.00;4.50;;;8.90;73.80;;;;;;5050002;28;21059;-63
2023/12/19 11:22:54;;;;;;;5.93;5.33;;;8.90;73.60;;;;;;5049775;28;20436;-63
2023/12/19 11:25:33;;;;;;;5.63;4.90;;;8.90;73.70;;;;;;5049887;28;20424;-63
2023/12/19 11:28:02;;;;;;;5.03;4.10;;;9.00;73.90;;;;;;5049242;28;20434;-64
2023/12/19 11:30:37;;;;;;;4.07;3.67;;;9.10;73.30;;;;;;5050083;28;20448;-63
2023/12/19 11:33:05;;;;;;;5.13;4.63;;;9.10;73.30;;;;;;5050470;28;20511;-63
2023/12/19 11:35:32;;;;;;;5.07;4.50;;;9.10;73.20;;;;;;5050095;28;20454;-63
2023/12/19 11:38:24;;;;;;;5.67;4.30;;;9.20;73.00;;;;;;5070231;28;20530;-62
2023/12/19 11:40:54;;;;;;;5.60;4.43;;;9.40;73.10;;;;;;5069995;28;20475;-63
2023/12/19 11:43:53;;;;;;;5.83;4.80;;;9.40;73.70;;;;;;5069583;28;20456;-63
2023/12/19 11:46:22;;;;;;;4.00;3.60;;;9.40;73.70;;;;;;5069760;28;20475;-64
2023/12/19 11:48:50;;;;;;;5.73;4.37;;;9.50;74.10;;;;;;5069782;28;20924;-63
2023/12/19 11:51:44;;;;;;;4.07;3.53;;;9.50;74.40;;;;;;5069699;28;20486;-64
2023/12/19 11:54:13;;;;;;;3.33;3.03;;;9.50;74.80;;;;;;5069654;28;20550;-64
2023/12/19 11:56:41;;;;;;;3.80;3.00;;;9.30;75.40;;;;;;5069334;28;20445;-63
2023/12/19 11:59:09;;;;;;;3.57;3.03;;;9.10;76.40;;;;;;5069661;28;20540;-63
2023/12/19 12:01:40;;;;;;;3.40;3.00;;;9.10;76.60;;;;;;5069691;28;20451;-63
2023/12/19 12:04:08;;;;;;;3.30;3.00;;;9.20;76.70;;;;;;5060576;28;20448;-63
2023/12/19 12:06:35;;;;;;;3.30;2.97;;;9.20;76.50;;;;;;5054454;28;20447;-64
2023/12/19 12:09:05;;;;;;;3.67;3.17;;;9.20;76.50;;;;;;5067420;28;20449;-62
2023/12/19 12:11:47;;;;;;;4.13;3.03;;;9.20;76.40;;;;;;5068785;28;20482;-63
2023/12/19 12:14:15;;;;;;;5.70;4.10;;;9.20;76.90;;;;;;5069229;28;20431;-63
2023/12/19 12:16:43;;;;;;;5.07;4.10;;;9.00;78.00;;;;;;5063776;28;20440;-63
2023/12/19 12:19:12;;;;;;;3.80;3.30;;;9.00;77.20;;;;;;5052821;28;20456;-64
2023/12/19 12:21:50;;;;;;;3.30;3.00;;;9.10;77.30;;;;;;5054488;28;20451;-63
2023/12/19 12:24:20;;;;;;;5.97;4.80;;;9.20;77.20;;;;;;5053385;28;20428;-63
2023/12/19 12:26:49;;;;;;;5.77;5.13;;;9.20;75.90;;;;;;5053148;28;20456;-63
2023/12/19 12:29:17;;;;;;;6.60;5.07;;;9.30;75.20;;;;;;5052963;28;20455;-63
2023/12/19 12:31:45;;;;;;;6.70;5.27;;;9.40;74.80;;;;;;5059869;28;20501;-63
2023/12/19 12:34:12;;;;;;;6.30;5.33;;;9.40;74.10;;;;;;5067680;28;20534;-63
2023/12/19 12:36:39;;;;;;;6.20;5.20;;;9.30;73.70;;;;;;5053377;28;20543;-63
2023/12/19 12:39:07;;;;;;;7.33;5.87;;;9.30;73.50;;;;;;5067808;28;20458;-62
2023/12/19 12:41:33;;;;;;;6.57;5.87;;;9.30;73.60;;;;;;5072412;28;20934;-63
2023/12/19 12:44:11;;;;;;;6.43;5.30;;;9.30;73.50;;;;;;5072071;28;20540;-63
2023/12/19 12:46:43;;;;;;;7.13;5.70;;;9.20;73.50;;;;;;5072019;28;20545;-64
2023/12/19 12:49:10;;;;;;;7.27;5.87;;;9.20;73.50;;;;;;5072291;28;20923;-62
2023/12/19 12:51:37;;;;;;;5.80;5.07;;;9.20;73.90;;;;;;5061188;28;20516;-63